Terminal Aerodrome Forecast
Issued by NWS

Home | Current Version | Previous Version | Text Only | Print | Product List | Glossary On
Versions: 1 2 3 4 5 6 7 8 9 10 11 12 13 14 15 16 17 18 19 20 21 22 23 24 25 26 27 28 29 30 31 32 33 34 35 36 37 38
000
FTPQ31 PGUM 222352
TAFGUM
TAF

TAF
PTRO 222352Z 2300/2324 24011KT P6SM VCTS SCT016CB BKN040 OVC080
      TEMPO 2300/2304 2SM +SHRA BKN014 OVC030
     FM230400 24009KT P6SM VCSH SCT016 BKN050 OVC100
      TEMPO 2304/2308 -SHRA SCT014 BKN025=

USA.gov is the U.S. government's official web portal to all federal, state and local government web resources and services.